sensor_id;sensor_type;location;lat;lon;timestamp;P1;durP1;ratioP1;P2;durP2;ratioP2
40953;SDS011;26686;50.130;8.710;2023-03-04T00:04:46;13.15;;;9.57;;
40953;SDS011;26686;50.130;8.710;2023-03-04T00:09:48;15.13;;;10.73;;
40953;SDS011;26686;50.130;8.710;2023-03-04T00:14:49;13.13;;;10.52;;
40953;SDS011;26686;50.130;8.710;2023-03-04T00:19:51;13.13;;;9.75;;
40953;SDS011;26686;50.130;8.710;2023-03-04T00:24:52;15.02;;;11.20;;
40953;SDS011;26686;50.130;8.710;2023-03-04T00:29:54;16.85;;;10.50;;
40953;SDS011;26686;50.130;8.710;2023-03-04T00:34:56;15.68;;;10.95;;
40953;SDS011;26686;50.130;8.710;2023-03-04T00:39:58;12.77;;;10.02;;
40953;SDS011;26686;50.130;8.710;2023-03-04T00:44:59;14.32;;;10.40;;
40953;SDS011;26686;50.130;8.710;2023-03-04T00:50:00;13.98;;;10.48;;
40953;SDS011;26686;50.130;8.710;2023-03-04T00:55:02;16.92;;;11.40;;
40953;SDS011;26686;50.130;8.710;2023-03-04T01:00:04;14.18;;;10.95;;
40953;SDS011;26686;50.130;8.710;2023-03-04T01:05:06;14.48;;;11.48;;
40953;SDS011;26686;50.130;8.710;2023-03-04T01:10:09;15.98;;;12.50;;
40953;SDS011;26686;50.130;8.710;2023-03-04T01:15:12;17.77;;;12.23;;
40953;SDS011;26686;50.130;8.710;2023-03-04T01:20:14;19.80;;;14.85;;
40953;SDS011;26686;50.130;8.710;2023-03-04T01:25:16;20.60;;;15.48;;
40953;SDS011;26686;50.130;8.710;2023-03-04T01:30:17;21.00;;;14.70;;
40953;SDS011;26686;50.130;8.710;2023-03-04T01:35:18;22.42;;;14.98;;
40953;SDS011;26686;50.130;8.710;2023-03-04T01:40:20;22.67;;;15.60;;
40953;SDS011;26686;50.130;8.710;2023-03-04T01:45:22;19.38;;;14.30;;
40953;SDS011;26686;50.130;8.710;2023-03-04T01:50:31;21.27;;;15.90;;
40953;SDS011;26686;50.130;8.710;2023-03-04T01:55:35;21.98;;;16.15;;
40953;SDS011;26686;50.130;8.710;2023-03-04T02:00:37;23.35;;;16.92;;
40953;SDS011;26686;50.130;8.710;2023-03-04T02:05:40;23.52;;;16.83;;
40953;SDS011;26686;50.130;8.710;2023-03-04T02:10:46;24.35;;;17.20;;
40953;SDS011;26686;50.130;8.710;2023-03-04T02:15:48;25.73;;;18.10;;
40953;SDS011;26686;50.130;8.710;2023-03-04T02:26:16;21.27;;;16.10;;
40953;SDS011;26686;50.130;8.710;2023-03-04T02:31:27;23.33;;;17.67;;
40953;SDS011;26686;50.130;8.710;2023-03-04T02:36:30;24.45;;;17.42;;
40953;SDS011;26686;50.130;8.710;2023-03-04T02:41:33;23.08;;;16.80;;
40953;SDS011;26686;50.130;8.710;2023-03-04T02:46:35;26.65;;;19.00;;
40953;SDS011;26686;50.130;8.710;2023-03-04T02:51:37;20.58;;;16.85;;
40953;SDS011;26686;50.130;8.710;2023-03-04T02:56:43;22.88;;;17.02;;
40953;SDS011;26686;50.130;8.710;2023-03-04T03:01:45;20.38;;;16.58;;
40953;SDS011;26686;50.130;8.710;2023-03-04T03:06:47;21.98;;;16.42;;
40953;SDS011;26686;50.130;8.710;2023-03-04T03:11:49;22.50;;;17.10;;
40953;SDS011;26686;50.130;8.710;2023-03-04T03:16:50;20.98;;;15.90;;
40953;SDS011;26686;50.130;8.710;2023-03-04T03:21:51;22.42;;;16.35;;
40953;SDS011;26686;50.130;8.710;2023-03-04T03:26:53;22.17;;;16.00;;
40953;SDS011;26686;50.130;8.710;2023-03-04T03:31:54;22.83;;;16.75;;
40953;SDS011;26686;50.130;8.710;2023-03-04T03:36:57;22.42;;;16.20;;
40953;SDS011;26686;50.130;8.710;2023-03-04T03:41:58;21.52;;;16.35;;
40953;SDS011;26686;50.130;8.710;2023-03-04T03:47:00;22.30;;;15.70;;
40953;SDS011;26686;50.130;8.710;2023-03-04T03:52:01;23.05;;;16.67;;
40953;SDS011;26686;50.130;8.710;2023-03-04T03:57:03;21.17;;;16.60;;
40953;SDS011;26686;50.130;8.710;2023-03-04T04:02:04;20.92;;;16.20;;
40953;SDS011;26686;50.130;8.710;2023-03-04T04:07:06;20.48;;;16.00;;
40953;SDS011;26686;50.130;8.710;2023-03-04T04:12:07;21.95;;;15.95;;
40953;SDS011;26686;50.130;8.710;2023-03-04T04:17:09;18.65;;;14.70;;
40953;SDS011;26686;50.130;8.710;2023-03-04T04:22:12;23.20;;;15.32;;
40953;SDS011;26686;50.130;8.710;2023-03-04T04:27:16;22.23;;;15.52;;
40953;SDS011;26686;50.130;8.710;2023-03-04T04:32:17;25.10;;;17.50;;
40953;SDS011;26686;50.130;8.710;2023-03-04T04:37:19;21.83;;;15.63;;
40953;SDS011;26686;50.130;8.710;2023-03-04T04:42:20;22.55;;;14.70;;
40953;SDS011;26686;50.130;8.710;2023-03-04T04:47:22;23.63;;;16.38;;
40953;SDS011;26686;50.130;8.710;2023-03-04T04:52:24;25.10;;;15.45;;
40953;SDS011;26686;50.130;8.710;2023-03-04T04:57:25;24.00;;;16.42;;
40953;SDS011;26686;50.130;8.710;2023-03-04T05:02:26;23.58;;;15.57;;
40953;SDS011;26686;50.130;8.710;2023-03-04T05:07:28;21.80;;;16.83;;
40953;SDS011;26686;50.130;8.710;2023-03-04T05:12:29;24.55;;;16.48;;
40953;SDS011;26686;50.130;8.710;2023-03-04T05:17:30;21.70;;;16.50;;
40953;SDS011;26686;50.130;8.710;2023-03-04T05:22:32;25.48;;;16.05;;
40953;SDS011;26686;50.130;8.710;2023-03-04T05:27:34;22.15;;;15.88;;
40953;SDS011;26686;50.130;8.710;2023-03-04T05:32:37;22.38;;;17.02;;
40953;SDS011;26686;50.130;8.710;2023-03-04T05:37:39;22.30;;;16.90;;
40953;SDS011;26686;50.130;8.710;2023-03-04T05:42:40;22.67;;;16.90;;
40953;SDS011;26686;50.130;8.710;2023-03-04T05:47:42;20.80;;;16.35;;
40953;SDS011;26686;50.130;8.710;2023-03-04T05:52:43;21.85;;;16.52;;
40953;SDS011;26686;50.130;8.710;2023-03-04T05:57:45;25.55;;;18.30;;
40953;SDS011;26686;50.130;8.710;2023-03-04T06:02:46;23.73;;;17.23;;
40953;SDS011;26686;50.130;8.710;2023-03-04T06:07:48;25.40;;;17.77;;
40953;SDS011;26686;50.130;8.710;2023-03-04T06:12:52;18.77;;;13.73;;
40953;SDS011;26686;50.130;8.710;2023-03-04T06:17:53;24.80;;;18.55;;
40953;SDS011;26686;50.130;8.710;2023-03-04T06:22:55;25.30;;;19.23;;
40953;SDS011;26686;50.130;8.710;2023-03-04T06:27:56;22.70;;;18.75;;
40953;SDS011;26686;50.130;8.710;2023-03-04T06:32:58;26.55;;;19.63;;
40953;SDS011;26686;50.130;8.710;2023-03-04T06:37:59;22.98;;;17.92;;
40953;SDS011;26686;50.130;8.710;2023-03-04T06:43:00;26.60;;;17.63;;
40953;SDS011;26686;50.130;8.710;2023-03-04T06:48:02;25.27;;;18.45;;
40953;SDS011;26686;50.130;8.710;2023-03-04T06:53:03;28.02;;;17.55;;
40953;SDS011;26686;50.130;8.710;2023-03-04T06:58:05;22.30;;;17.67;;
40953;SDS011;26686;50.130;8.710;2023-03-04T07:03:07;26.13;;;18.23;;
40953;SDS011;26686;50.130;8.710;2023-03-04T07:08:11;26.27;;;18.98;;
40953;SDS011;26686;50.130;8.710;2023-03-04T07:13:13;22.10;;;16.30;;
40953;SDS011;26686;50.130;8.710;2023-03-04T07:18:15;22.17;;;17.98;;
40953;SDS011;26686;50.130;8.710;2023-03-04T07:23:16;23.95;;;18.42;;
40953;SDS011;26686;50.130;8.710;2023-03-04T07:28:17;22.65;;;16.75;;
40953;SDS011;26686;50.130;8.710;2023-03-04T07:33:19;23.92;;;16.95;;
40953;SDS011;26686;50.130;8.710;2023-03-04T07:38:20;21.25;;;15.95;;
40953;SDS011;26686;50.130;8.710;2023-03-04T07:43:22;21.48;;;16.42;;
40953;SDS011;26686;50.130;8.710;2023-03-04T07:48:23;19.45;;;15.13;;
40953;SDS011;26686;50.130;8.710;2023-03-04T07:53:25;22.10;;;16.77;;
40953;SDS011;26686;50.130;8.710;2023-03-04T07:58:26;21.27;;;16.05;;
40953;SDS011;26686;50.130;8.710;2023-03-04T08:03:28;21.52;;;15.60;;
40953;SDS011;26686;50.130;8.710;2023-03-04T08:08:29;26.45;;;16.55;;
40953;SDS011;26686;50.130;8.710;2023-03-04T08:13:31;18.67;;;15.27;;
40953;SDS011;26686;50.130;8.710;2023-03-04T08:18:33;24.38;;;16.48;;
40953;SDS011;26686;50.130;8.710;2023-03-04T08:23:34;19.25;;;15.80;;
40953;SDS011;26686;50.130;8.710;2023-03-04T08:28:36;21.33;;;15.63;;
40953;SDS011;26686;50.130;8.710;2023-03-04T08:33:38;19.05;;;14.10;;
40953;SDS011;26686;50.130;8.710;2023-03-04T08:38:39;22.02;;;15.00;;
40953;SDS011;26686;50.130;8.710;2023-03-04T08:43:42;19.08;;;14.75;;
40953;SDS011;26686;50.130;8.710;2023-03-04T08:48:44;19.98;;;15.05;;
40953;SDS011;26686;50.130;8.710;2023-03-04T08:53:45;23.48;;;15.07;;
40953;SDS011;26686;50.130;8.710;2023-03-04T08:58:47;17.08;;;13.23;;
40953;SDS011;26686;50.130;8.710;2023-03-04T09:03:48;19.88;;;13.98;;
40953;SDS011;26686;50.130;8.710;2023-03-04T09:08:50;19.58;;;13.95;;
40953;SDS011;26686;50.130;8.710;2023-03-04T09:13:51;21.20;;;13.30;;
40953;SDS011;26686;50.130;8.710;2023-03-04T09:18:53;15.93;;;11.85;;
40953;SDS011;26686;50.130;8.710;2023-03-04T09:23:55;20.30;;;14.25;;
40953;SDS011;26686;50.130;8.710;2023-03-04T09:28:57;19.15;;;11.88;;
40953;SDS011;26686;50.130;8.710;2023-03-04T09:34:00;22.60;;;12.43;;
40953;SDS011;26686;50.130;8.710;2023-03-04T09:39:02;19.05;;;12.55;;
40953;SDS011;26686;50.130;8.710;2023-03-04T09:44:13;18.50;;;13.75;;
40953;SDS011;26686;50.130;8.710;2023-03-04T09:49:24;16.63;;;12.13;;
40953;SDS011;26686;50.130;8.710;2023-03-04T09:59:52;17.30;;;11.82;;
40953;SDS011;26686;50.130;8.710;2023-03-04T10:05:14;20.95;;;10.65;;
40953;SDS011;26686;50.130;8.710;2023-03-04T10:10:29;16.85;;;9.65;;
40953;SDS011;26686;50.130;8.710;2023-03-04T10:15:38;13.63;;;9.35;;
40953;SDS011;26686;50.130;8.710;2023-03-04T10:20:47;23.27;;;13.85;;
40953;SDS011;26686;50.130;8.710;2023-03-04T10:25:56;20.70;;;12.45;;
40953;SDS011;26686;50.130;8.710;2023-03-04T10:41:31;13.73;;;6.67;;
40953;SDS011;26686;50.130;8.710;2023-03-04T10:46:36;11.60;;;6.80;;
40953;SDS011;26686;50.130;8.710;2023-03-04T10:57:04;8.93;;;6.40;;
40953;SDS011;26686;50.130;8.710;2023-03-04T11:02:25;10.95;;;7.07;;
40953;SDS011;26686;50.130;8.710;2023-03-04T11:07:29;12.47;;;6.63;;
40953;SDS011;26686;50.130;8.710;2023-03-04T11:12:38;9.73;;;5.75;;
40953;SDS011;26686;50.130;8.710;2023-03-04T11:17:41;10.82;;;5.28;;
40953;SDS011;26686;50.130;8.710;2023-03-04T11:22:47;9.25;;;6.18;;
40953;SDS011;26686;50.130;8.710;2023-03-04T11:27:51;9.48;;;5.50;;
40953;SDS011;26686;50.130;8.710;2023-03-04T11:32:59;10.00;;;5.45;;
40953;SDS011;26686;50.130;8.710;2023-03-04T11:38:20;10.30;;;4.70;;
40953;SDS011;26686;50.130;8.710;2023-03-04T11:48:38;7.63;;;4.55;;
40953;SDS011;26686;50.130;8.710;2023-03-04T11:53:49;12.40;;;5.22;;
40953;SDS011;26686;50.130;8.710;2023-03-04T11:59:09;9.50;;;5.20;;
40953;SDS011;26686;50.130;8.710;2023-03-04T12:15:25;9.55;;;5.35;;
40953;SDS011;26686;50.130;8.710;2023-03-04T12:26:29;13.60;;;5.10;;
40953;SDS011;26686;50.130;8.710;2023-03-04T12:31:31;6.13;;;3.65;;
40953;SDS011;26686;50.130;8.710;2023-03-04T12:47:16;8.38;;;3.90;;
40953;SDS011;26686;50.130;8.710;2023-03-04T12:58:04;6.90;;;2.83;;
40953;SDS011;26686;50.130;8.710;2023-03-04T13:03:17;6.22;;;3.53;;
40953;SDS011;26686;50.130;8.710;2023-03-04T13:13:35;5.68;;;2.90;;
40953;SDS011;26686;50.130;8.710;2023-03-04T13:18:37;2.72;;;1.83;;
40953;SDS011;26686;50.130;8.710;2023-03-04T13:23:39;3.65;;;1.90;;
40953;SDS011;26686;50.130;8.710;2023-03-04T13:28:41;5.93;;;3.15;;
40953;SDS011;26686;50.130;8.710;2023-03-04T13:33:44;4.30;;;2.60;;
40953;SDS011;26686;50.130;8.710;2023-03-04T13:38:56;4.22;;;3.08;;
40953;SDS011;26686;50.130;8.710;2023-03-04T13:49:34;5.63;;;3.53;;
40953;SDS011;26686;50.130;8.710;2023-03-04T13:54:35;7.50;;;3.95;;
40953;SDS011;26686;50.130;8.710;2023-03-04T13:59:40;8.90;;;8.02;;
40953;SDS011;26686;50.130;8.710;2023-03-04T14:04:45;8.60;;;4.03;;
40953;SDS011;26686;50.130;8.710;2023-03-04T14:15:19;5.93;;;3.30;;
40953;SDS011;26686;50.130;8.710;2023-03-04T14:20:31;4.47;;;3.45;;
40953;SDS011;26686;50.130;8.710;2023-03-04T14:25:34;7.90;;;4.10;;
40953;SDS011;26686;50.130;8.710;2023-03-04T14:30:37;7.05;;;4.05;;
40953;SDS011;26686;50.130;8.710;2023-03-04T14:35:45;6.85;;;4.50;;
40953;SDS011;26686;50.130;8.710;2023-03-04T14:40:52;6.18;;;3.78;;
40953;SDS011;26686;50.130;8.710;2023-03-04T14:46:06;6.65;;;4.13;;
40953;SDS011;26686;50.130;8.710;2023-03-04T14:51:30;9.13;;;3.90;;
40953;SDS011;26686;50.130;8.710;2023-03-04T14:56:42;8.32;;;4.40;;
40953;SDS011;26686;50.130;8.710;2023-03-04T15:01:44;9.77;;;5.28;;
40953;SDS011;26686;50.130;8.710;2023-03-04T15:06:47;11.48;;;4.97;;
40953;SDS011;26686;50.130;8.710;2023-03-04T15:11:51;8.13;;;5.82;;
40953;SDS011;26686;50.130;8.710;2023-03-04T15:17:02;9.48;;;5.35;;
40953;SDS011;26686;50.130;8.710;2023-03-04T15:22:04;7.97;;;5.25;;
40953;SDS011;26686;50.130;8.710;2023-03-04T15:27:08;6.25;;;4.35;;
40953;SDS011;26686;50.130;8.710;2023-03-04T15:32:12;6.47;;;4.13;;
40953;SDS011;26686;50.130;8.710;2023-03-04T15:37:23;5.65;;;4.18;;
40953;SDS011;26686;50.130;8.710;2023-03-04T15:42:27;5.97;;;3.78;;
40953;SDS011;26686;50.130;8.710;2023-03-04T15:47:29;5.22;;;3.10;;
40953;SDS011;26686;50.130;8.710;2023-03-04T15:52:30;7.43;;;3.85;;
40953;SDS011;26686;50.130;8.710;2023-03-04T15:57:33;5.07;;;3.58;;
40953;SDS011;26686;50.130;8.710;2023-03-04T16:02:35;5.20;;;2.33;;
40953;SDS011;26686;50.130;8.710;2023-03-04T16:07:36;4.90;;;3.03;;
40953;SDS011;26686;50.130;8.710;2023-03-04T16:12:40;6.07;;;2.53;;
40953;SDS011;26686;50.130;8.710;2023-03-04T16:17:42;3.47;;;1.88;;
40953;SDS011;26686;50.130;8.710;2023-03-04T16:22:44;7.75;;;3.33;;
40953;SDS011;26686;50.130;8.710;2023-03-04T16:27:47;6.13;;;4.53;;
40953;SDS011;26686;50.130;8.710;2023-03-04T16:32:52;5.22;;;3.20;;
40953;SDS011;26686;50.130;8.710;2023-03-04T16:37:54;5.05;;;3.50;;
40953;SDS011;26686;50.130;8.710;2023-03-04T16:42:56;15.23;;;10.55;;
40953;SDS011;26686;50.130;8.710;2023-03-04T16:47:58;11.95;;;7.43;;
40953;SDS011;26686;50.130;8.710;2023-03-04T16:52:59;6.15;;;5.15;;
40953;SDS011;26686;50.130;8.710;2023-03-04T16:58:01;11.20;;;7.63;;
40953;SDS011;26686;50.130;8.710;2023-03-04T17:03:02;8.50;;;5.65;;
40953;SDS011;26686;50.130;8.710;2023-03-04T17:08:04;9.10;;;5.82;;
40953;SDS011;26686;50.130;8.710;2023-03-04T17:13:05;8.13;;;6.00;;
40953;SDS011;26686;50.130;8.710;2023-03-04T17:18:09;10.70;;;6.80;;
40953;SDS011;26686;50.130;8.710;2023-03-04T17:23:10;9.25;;;7.80;;
40953;SDS011;26686;50.130;8.710;2023-03-04T17:28:12;9.15;;;7.78;;
40953;SDS011;26686;50.130;8.710;2023-03-04T17:33:13;10.40;;;7.90;;
40953;SDS011;26686;50.130;8.710;2023-03-04T17:38:14;9.45;;;8.07;;
40953;SDS011;26686;50.130;8.710;2023-03-04T17:43:16;10.73;;;8.60;;
40953;SDS011;26686;50.130;8.710;2023-03-04T17:48:18;12.77;;;11.07;;
40953;SDS011;26686;50.130;8.710;2023-03-04T17:53:19;14.85;;;10.27;;
40953;SDS011;26686;50.130;8.710;2023-03-04T17:58:21;16.67;;;12.73;;
40953;SDS011;26686;50.130;8.710;2023-03-04T18:03:23;19.13;;;14.98;;
40953;SDS011;26686;50.130;8.710;2023-03-04T18:08:24;11.43;;;9.35;;
40953;SDS011;26686;50.130;8.710;2023-03-04T18:13:26;12.00;;;9.43;;
40953;SDS011;26686;50.130;8.710;2023-03-04T18:18:27;9.70;;;7.80;;
40953;SDS011;26686;50.130;8.710;2023-03-04T18:23:29;10.48;;;8.35;;
40953;SDS011;26686;50.130;8.710;2023-03-04T18:28:31;12.38;;;8.73;;
40953;SDS011;26686;50.130;8.710;2023-03-04T18:33:32;11.30;;;8.38;;
40953;SDS011;26686;50.130;8.710;2023-03-04T18:38:34;9.35;;;8.45;;
40953;SDS011;26686;50.130;8.710;2023-03-04T18:43:35;10.57;;;8.88;;
40953;SDS011;26686;50.130;8.710;2023-03-04T18:48:41;8.40;;;7.30;;
40953;SDS011;26686;50.130;8.710;2023-03-04T18:53:45;10.93;;;9.38;;
40953;SDS011;26686;50.130;8.710;2023-03-04T18:58:46;11.43;;;7.72;;
40953;SDS011;26686;50.130;8.710;2023-03-04T19:03:50;8.87;;;7.83;;
40953;SDS011;26686;50.130;8.710;2023-03-04T19:08:54;8.73;;;7.32;;
40953;SDS011;26686;50.130;8.710;2023-03-04T19:13:55;10.80;;;8.23;;
40953;SDS011;26686;50.130;8.710;2023-03-04T19:18:57;10.65;;;7.90;;
40953;SDS011;26686;50.130;8.710;2023-03-04T19:23:58;14.38;;;9.48;;
40953;SDS011;26686;50.130;8.710;2023-03-04T19:29:00;12.18;;;8.55;;
40953;SDS011;26686;50.130;8.710;2023-03-04T19:34:03;10.65;;;9.15;;
40953;SDS011;26686;50.130;8.710;2023-03-04T19:39:05;10.98;;;8.60;;
40953;SDS011;26686;50.130;8.710;2023-03-04T19:44:08;9.63;;;8.45;;
40953;SDS011;26686;50.130;8.710;2023-03-04T19:49:09;11.93;;;9.32;;
40953;SDS011;26686;50.130;8.710;2023-03-04T19:54:11;10.27;;;8.32;;
40953;SDS011;26686;50.130;8.710;2023-03-04T19:59:12;11.65;;;9.48;;
40953;SDS011;26686;50.130;8.710;2023-03-04T20:04:15;12.25;;;10.48;;
40953;SDS011;26686;50.130;8.710;2023-03-04T20:09:18;13.07;;;10.02;;
40953;SDS011;26686;50.130;8.710;2023-03-04T20:14:20;12.05;;;10.30;;
40953;SDS011;26686;50.130;8.710;2023-03-04T20:19:21;10.25;;;9.25;;
40953;SDS011;26686;50.130;8.710;2023-03-04T20:24:23;11.52;;;9.68;;
40953;SDS011;26686;50.130;8.710;2023-03-04T20:29:25;10.48;;;9.48;;
40953;SDS011;26686;50.130;8.710;2023-03-04T20:34:28;10.10;;;9.05;;
40953;SDS011;26686;50.130;8.710;2023-03-04T20:39:29;11.23;;;9.15;;
40953;SDS011;26686;50.130;8.710;2023-03-04T20:44:31;10.50;;;9.40;;
40953;SDS011;26686;50.130;8.710;2023-03-04T20:49:33;10.20;;;9.07;;
40953;SDS011;26686;50.130;8.710;2023-03-04T20:54:35;10.45;;;9.38;;
40953;SDS011;26686;50.130;8.710;2023-03-04T20:59:38;11.82;;;9.85;;
40953;SDS011;26686;50.130;8.710;2023-03-04T21:04:41;11.07;;;9.80;;
40953;SDS011;26686;50.130;8.710;2023-03-04T21:09:44;9.75;;;8.85;;
40953;SDS011;26686;50.130;8.710;2023-03-04T21:14:45;10.18;;;9.05;;
40953;SDS011;26686;50.130;8.710;2023-03-04T21:19:47;10.10;;;9.00;;
40953;SDS011;26686;50.130;8.710;2023-03-04T21:24:48;10.63;;;9.10;;
40953;SDS011;26686;50.130;8.710;2023-03-04T21:29:49;10.00;;;9.00;;
40953;SDS011;26686;50.130;8.710;2023-03-04T21:34:52;12.63;;;9.60;;
40953;SDS011;26686;50.130;8.710;2023-03-04T21:39:55;10.65;;;9.27;;
40953;SDS011;26686;50.130;8.710;2023-03-04T21:44:56;10.90;;;9.95;;
40953;SDS011;26686;50.130;8.710;2023-03-04T21:49:57;9.95;;;8.95;;
40953;SDS011;26686;50.130;8.710;2023-03-04T21:54:59;12.27;;;9.10;;
40953;SDS011;26686;50.130;8.710;2023-03-04T22:00:00;10.07;;;9.07;;
40953;SDS011;26686;50.130;8.710;2023-03-04T22:05:02;10.77;;;9.40;;
40953;SDS011;26686;50.130;8.710;2023-03-04T22:10:05;10.07;;;9.07;;
40953;SDS011;26686;50.130;8.710;2023-03-04T22:15:07;11.60;;;9.75;;
40953;SDS011;26686;50.130;8.710;2023-03-04T22:20:10;9.38;;;8.50;;
40953;SDS011;26686;50.130;8.710;2023-03-04T22:25:12;9.32;;;8.35;;
40953;SDS011;26686;50.130;8.710;2023-03-04T22:30:13;9.13;;;8.23;;
40953;SDS011;26686;50.130;8.710;2023-03-04T22:35:17;9.68;;;8.63;;
40953;SDS011;26686;50.130;8.710;2023-03-04T22:40:19;11.13;;;9.60;;
40953;SDS011;26686;50.130;8.710;2023-03-04T22:45:20;9.82;;;8.93;;
40953;SDS011;26686;50.130;8.710;2023-03-04T22:50:22;11.25;;;10.13;;
40953;SDS011;26686;50.130;8.710;2023-03-04T22:55:23;11.95;;;10.73;;
40953;SDS011;26686;50.130;8.710;2023-03-04T23:00:25;10.65;;;9.55;;
40953;SDS011;26686;50.130;8.710;2023-03-04T23:05:28;10.32;;;9.32;;
40953;SDS011;26686;50.130;8.710;2023-03-04T23:10:29;9.88;;;8.98;;
40953;SDS011;26686;50.130;8.710;2023-03-04T23:15:31;9.57;;;8.57;;
40953;SDS011;26686;50.130;8.710;2023-03-04T23:20:32;10.98;;;9.52;;
40953;SDS011;26686;50.130;8.710;2023-03-04T23:25:34;11.55;;;10.32;;
40953;SDS011;26686;50.130;8.710;2023-03-04T23:30:35;10.32;;;9.40;;
40953;SDS011;26686;50.130;8.710;2023-03-04T23:35:37;11.25;;;9.10;;
40953;SDS011;26686;50.130;8.710;2023-03-04T23:40:40;10.65;;;8.63;;
40953;SDS011;26686;50.130;8.710;2023-03-04T23:45:42;10.13;;;8.80;;
40953;SDS011;26686;50.130;8.710;2023-03-04T23:50:48;9.18;;;7.90;;
40953;SDS011;26686;50.130;8.710;2023-03-04T23:55:51;9.00;;;7.53;;
